createdAt,value
2023-02-21T00:02:30.085Z,66.07
2023-02-21T00:05:17.416Z,70.53
2023-02-21T00:08:05.279Z,67.23
2023-02-21T00:10:52.314Z,65.60
2023-02-21T00:13:39.209Z,67.63
2023-02-21T00:16:26.496Z,68.83
2023-02-21T00:19:13.217Z,65.73
2023-02-21T00:22:00.153Z,68.20
2023-02-21T00:24:48.223Z,78.33
2023-02-21T00:27:34.981Z,66.00
2023-02-21T00:30:21.794Z,62.83
2023-02-21T00:33:09.659Z,67.73
2023-02-21T00:35:56.686Z,65.30
2023-02-21T00:38:43.628Z,67.80
2023-02-21T00:41:31.567Z,73.53
2023-02-21T00:44:18.374Z,65.70
2023-02-21T00:47:05.058Z,67.30
2023-02-21T00:49:51.964Z,73.50
2023-02-21T00:52:38.442Z,69.00
2023-02-21T00:55:25.662Z,68.50
2023-02-21T00:58:13.889Z,71.73
2023-02-21T01:01:01.148Z,68.83
2023-02-21T01:03:47.990Z,67.83
2023-02-21T01:06:34.817Z,73.87
2023-02-21T01:09:21.544Z,71.47
2023-02-21T01:12:09.357Z,73.50
2023-02-21T01:14:57.327Z,70.23
2023-02-21T01:17:45.914Z,71.37
2023-02-21T01:20:33.035Z,71.37
2023-02-21T01:23:19.673Z,70.30
2023-02-21T01:26:06.699Z,70.73
2023-02-21T01:28:53.804Z,69.97
2023-02-21T01:31:42.154Z,75.47
2023-02-21T01:34:28.988Z,75.90
2023-02-21T01:37:15.890Z,70.17
2023-02-21T01:40:02.757Z,70.13
2023-02-21T01:42:49.716Z,78.37
2023-02-21T01:46:06.523Z,89.43
2023-02-21T01:48:55.096Z,83.50
2023-02-21T01:51:43.778Z,83.00
2023-02-21T01:54:30.725Z,79.10
2023-02-21T01:57:19.270Z,82.73
2023-02-21T02:00:07.755Z,75.93
2023-02-21T02:03:06.122Z,79.70
2023-02-21T02:05:54.706Z,90.47
2023-02-21T02:08:43.537Z,78.43
2023-02-21T02:11:36.991Z,78.93
2023-02-21T02:14:13.471Z,84.67
2023-02-21T02:16:45.739Z,79.70
2023-02-21T02:19:28.980Z,80.77
2023-02-21T02:22:21.299Z,85.97
2023-02-21T02:25:05.269Z,78.30
2023-02-21T02:27:43.974Z,86.27
2023-02-21T02:30:29.130Z,85.43
2023-02-21T02:33:21.477Z,86.60
2023-02-21T02:35:54.968Z,83.77
2023-02-21T02:38:27.543Z,86.17
2023-02-21T02:41:01.679Z,98.27
2023-02-21T02:43:33.216Z,89.53
2023-02-21T02:46:06.649Z,93.43
2023-02-21T02:48:37.486Z,96.47
2023-02-21T02:51:10.028Z,94.30
2023-02-21T02:53:40.962Z,97.10
2023-02-21T02:56:11.716Z,96.70
2023-02-21T02:58:44.265Z,98.60
2023-02-21T03:01:26.369Z,101.00
2023-02-21T03:04:31.709Z,98.97
2023-02-21T03:07:05.193Z,87.90
2023-02-21T03:09:41.114Z,90.93
2023-02-21T03:12:12.097Z,92.03
2023-02-21T03:14:43.743Z,89.60
2023-02-21T03:17:14.700Z,92.27
2023-02-21T03:19:46.296Z,95.30
2023-02-21T03:22:19.432Z,89.40
2023-02-21T03:24:51.311Z,90.63
2023-02-21T03:27:22.789Z,94.83
2023-02-21T03:30:15.287Z,85.37
2023-02-21T03:32:47.333Z,86.17
2023-02-21T03:35:16.768Z,86.23
2023-02-21T03:37:48.501Z,87.20
2023-02-21T03:40:19.941Z,89.97
2023-02-21T03:42:52.493Z,84.43
2023-02-21T03:45:22.676Z,83.17
2023-02-21T03:48:12.505Z,74.83
2023-02-21T03:50:44.079Z,67.77
2023-02-21T03:53:15.256Z,70.83
2023-02-21T03:55:46.666Z,79.27
2023-02-21T03:58:21.613Z,69.10
2023-02-21T04:00:51.842Z,67.53
2023-02-21T04:03:48.320Z,71.00
2023-02-21T04:06:17.581Z,64.23
2023-02-21T04:08:50.577Z,64.53
2023-02-21T04:11:23.060Z,63.50
2023-02-21T04:13:54.203Z,60.33
2023-02-21T04:16:23.648Z,60.83
2023-02-21T04:18:54.741Z,58.50
2023-02-21T04:21:24.142Z,60.20
2023-02-21T04:23:57.990Z,62.57
2023-02-21T04:26:31.480Z,61.63
2023-02-21T04:29:01.190Z,69.17
2023-02-21T04:31:30.966Z,62.33
2023-02-21T04:34:11.337Z,71.40
2023-02-21T04:36:43.016Z,64.80
2023-02-21T04:39:13.922Z,67.27
2023-02-21T04:41:43.303Z,71.83
2023-02-21T04:44:12.681Z,71.07
2023-02-21T04:46:41.910Z,71.47
2023-02-21T04:49:12.168Z,71.50
2023-02-21T04:51:41.348Z,69.77
2023-02-21T04:54:12.449Z,70.07
2023-02-21T04:56:44.602Z,69.73
2023-02-21T04:59:14.010Z,70.40
2023-02-21T05:01:43.245Z,75.03
2023-02-21T05:04:12.534Z,79.33
2023-02-21T05:06:41.753Z,68.97
2023-02-21T05:09:11.126Z,68.80
2023-02-21T05:11:40.278Z,74.33
2023-02-21T05:14:11.166Z,76.27
2023-02-21T05:16:40.530Z,67.80
2023-02-21T05:19:09.770Z,66.07
2023-02-21T05:21:39.256Z,74.20
2023-02-21T05:24:08.851Z,67.80
2023-02-21T05:26:39.437Z,64.47
2023-02-21T05:29:10.176Z,70.03
2023-02-21T05:31:39.684Z,71.43
2023-02-21T05:34:08.859Z,68.10
2023-02-21T05:36:37.977Z,71.17
2023-02-21T05:39:08.439Z,69.90
2023-02-21T05:41:38.185Z,74.50
2023-02-21T05:44:07.422Z,72.37
2023-02-21T05:46:38.193Z,85.67
2023-02-21T05:49:07.496Z,71.87
2023-02-21T05:51:37.936Z,69.97
2023-02-21T05:54:07.951Z,69.10
2023-02-21T05:56:40.625Z,70.73
2023-02-21T05:59:10.310Z,83.83
2023-02-21T06:01:40.988Z,80.70
2023-02-21T06:04:10.265Z,75.43
2023-02-21T06:06:39.704Z,75.17
2023-02-21T06:09:09.346Z,82.03
2023-02-21T06:11:39.098Z,78.47
2023-02-21T06:14:09.643Z,82.53
2023-02-21T06:16:40.829Z,92.63
2023-02-21T06:19:11.323Z,79.00
2023-02-21T06:21:42.150Z,83.10
2023-02-21T06:24:12.102Z,79.90
2023-02-21T06:26:42.664Z,78.70
2023-02-21T06:29:12.657Z,76.80
2023-02-21T06:31:43.218Z,72.33
2023-02-21T06:34:12.688Z,70.73
2023-02-21T06:36:41.891Z,80.97
2023-02-21T06:39:12.803Z,73.53
2023-02-21T06:41:42.340Z,79.00
2023-02-21T06:44:11.696Z,70.70
2023-02-21T06:46:40.939Z,81.20
2023-02-21T06:49:11.799Z,65.13
2023-02-21T06:51:43.220Z,71.93
2023-02-21T06:54:12.776Z,72.57
2023-02-21T06:56:42.053Z,73.30
2023-02-21T06:59:11.900Z,70.60
2023-02-21T07:01:41.310Z,74.03
2023-02-21T07:04:12.408Z,70.40
2023-02-21T07:06:41.805Z,79.80
2023-02-21T07:09:11.112Z,68.17
2023-02-21T07:11:40.555Z,70.23
2023-02-21T07:14:09.929Z,76.43
2023-02-21T07:16:39.389Z,75.07
2023-02-21T07:19:08.606Z,68.57
2023-02-21T07:24:07.451Z,71.53
2023-02-21T07:26:38.085Z,70.60
2023-02-21T07:29:07.573Z,85.07
2023-02-21T07:31:36.910Z,73.50
2023-02-21T07:34:06.273Z,72.03
2023-02-21T07:36:36.402Z,64.60
2023-02-21T07:39:08.469Z,66.50
2023-02-21T07:41:38.064Z,67.27
2023-02-21T07:44:08.023Z,71.63
2023-02-21T07:46:37.937Z,74.43
2023-02-21T07:49:07.261Z,76.20
2023-02-21T07:51:36.984Z,67.97
2023-02-21T07:54:06.251Z,70.83
2023-02-21T07:56:36.980Z,67.33
2023-02-21T07:59:06.470Z,72.53
2023-02-21T08:01:35.677Z,75.40
2023-02-21T08:04:05.026Z,76.07
2023-02-21T08:06:35.965Z,69.37
2023-02-21T08:09:05.165Z,74.00
2023-02-21T08:11:36.910Z,65.27
2023-02-21T08:14:07.531Z,76.67
2023-02-21T08:16:36.882Z,63.73
2023-02-21T08:19:06.151Z,77.67
2023-02-21T08:21:35.820Z,66.13
2023-02-21T08:24:05.032Z,74.83
2023-02-21T08:26:34.370Z,72.50
2023-02-21T08:29:03.933Z,68.77
2023-02-21T08:31:36.871Z,59.27
2023-02-21T08:34:06.726Z,68.17
2023-02-21T08:36:36.740Z,58.40
2023-02-21T08:39:06.522Z,63.70
2023-02-21T08:41:38.887Z,70.53
2023-02-21T08:44:09.142Z,66.30
2023-02-21T08:46:40.903Z,61.83
2023-02-21T08:49:10.816Z,60.23
2023-02-21T08:51:40.592Z,64.83
2023-02-21T08:54:10.137Z,68.53
2023-02-21T08:56:39.591Z,53.00
2023-02-21T08:59:09.634Z,72.07
2023-02-21T09:01:40.241Z,70.23
2023-02-21T09:04:09.507Z,48.00
2023-02-21T09:06:38.767Z,45.67
2023-02-21T09:09:08.002Z,49.60
2023-02-21T09:11:37.305Z,45.63
2023-02-21T09:14:07.141Z,48.00
2023-02-21T09:16:36.459Z,60.23
2023-02-21T09:19:07.295Z,47.27
2023-02-21T09:21:36.598Z,43.40
2023-02-21T09:24:06.030Z,60.10
2023-02-21T09:26:35.863Z,60.83
2023-02-21T09:29:05.013Z,52.13
2023-02-21T09:31:34.221Z,68.57
2023-02-21T09:34:03.461Z,70.43
2023-02-21T09:36:34.224Z,55.90
2023-02-21T09:39:06.752Z,56.90
2023-02-21T09:41:36.557Z,64.97
2023-02-21T09:44:06.382Z,67.80
2023-02-21T09:46:37.160Z,68.73
2023-02-21T09:49:09.209Z,68.60
2023-02-21T09:51:41.969Z,63.30
2023-02-21T09:54:16.411Z,65.07
2023-02-21T09:56:46.491Z,65.50
2023-02-21T09:59:16.397Z,65.93
2023-02-21T10:01:52.354Z,72.83
2023-02-21T10:04:26.121Z,86.53
2023-02-21T10:06:59.834Z,64.90
2023-02-21T10:09:38.785Z,64.67
2023-02-21T10:12:12.692Z,46.27
2023-02-21T10:14:47.016Z,56.30
2023-02-21T10:17:20.500Z,60.67
2023-02-21T10:19:52.528Z,53.87
2023-02-21T10:22:25.749Z,50.63
2023-02-21T10:24:55.431Z,68.00
2023-02-21T10:27:25.815Z,36.70
2023-02-21T10:29:58.467Z,58.90
2023-02-21T10:32:28.412Z,57.27
2023-02-21T10:34:58.840Z,37.10
2023-02-21T10:37:35.452Z,37.60
2023-02-21T10:40:09.183Z,29.57
2023-02-21T10:42:40.442Z,33.20
2023-02-21T10:45:10.166Z,29.90
2023-02-21T10:47:47.827Z,38.10
2023-02-21T10:50:17.263Z,33.00
2023-02-21T10:52:51.386Z,27.30
2023-02-21T10:55:32.345Z,30.23
2023-02-21T10:58:08.882Z,40.07
2023-02-21T11:00:38.833Z,33.17
2023-02-21T11:03:08.980Z,29.60
2023-02-21T11:05:40.329Z,29.60
2023-02-21T11:08:11.920Z,24.47
2023-02-21T11:10:42.505Z,25.53
2023-02-21T11:13:23.433Z,24.07
2023-02-21T11:16:09.325Z,22.03
2023-02-21T11:18:38.631Z,29.10
2023-02-21T11:21:14.139Z,28.17
2023-02-21T11:23:50.166Z,27.53
2023-02-21T11:26:19.535Z,24.73
2023-02-21T11:28:49.669Z,28.57
2023-02-21T11:31:20.189Z,28.03
2023-02-21T11:33:53.282Z,37.10
2023-02-21T11:36:22.888Z,28.63
2023-02-21T11:39:04.871Z,29.33
2023-02-21T11:41:37.925Z,24.40
2023-02-21T11:44:25.404Z,39.13
2023-02-21T11:46:58.981Z,24.87
2023-02-21T11:49:32.914Z,28.93
2023-02-21T11:52:04.050Z,29.20
2023-02-21T11:54:34.995Z,21.07
2023-02-21T11:57:06.844Z,27.67
2023-02-21T11:59:41.096Z,42.43
2023-02-21T12:02:20.253Z,37.10
2023-02-21T12:04:55.526Z,33.13
2023-02-21T12:07:30.714Z,32.93
2023-02-21T12:10:04.862Z,38.70
2023-02-21T12:12:39.560Z,40.13
2023-02-21T12:15:14.656Z,43.57
2023-02-21T12:17:59.634Z,48.53
2023-02-21T12:20:36.066Z,45.40
2023-02-21T12:23:14.797Z,51.23
2023-02-21T12:25:51.316Z,60.53
2023-02-21T12:28:27.315Z,51.03
2023-02-21T12:31:07.619Z,49.47
2023-02-21T12:33:44.658Z,46.27
2023-02-21T12:36:20.720Z,42.17
2023-02-21T12:38:55.334Z,43.07
2023-02-21T12:41:33.330Z,39.57
2023-02-21T12:44:04.585Z,46.30
2023-02-21T12:46:36.486Z,38.00
2023-02-21T12:49:06.843Z,36.83
2023-02-21T12:51:38.893Z,35.13
2023-02-21T12:54:09.206Z,35.37
2023-02-21T12:56:42.650Z,35.80
2023-02-21T12:59:16.064Z,35.00
2023-02-21T13:01:47.560Z,35.30
2023-02-21T13:04:20.853Z,33.33
2023-02-21T13:06:51.413Z,36.03
2023-02-21T13:09:27.193Z,30.47
2023-02-21T13:12:00.829Z,28.80
2023-02-21T13:14:33.450Z,32.20
2023-02-21T13:17:02.655Z,27.20
2023-02-21T13:19:35.655Z,26.37
2023-02-21T13:22:44.188Z,24.83
2023-02-21T13:25:37.451Z,23.40
2023-02-21T13:28:11.586Z,21.80
2023-02-21T13:30:42.110Z,21.33
2023-02-21T13:33:25.128Z,25.87
2023-02-21T13:35:54.496Z,19.70
2023-02-21T13:38:23.706Z,26.10
2023-02-21T13:40:55.559Z,16.53
2023-02-21T13:43:27.593Z,18.93
2023-02-21T13:45:57.396Z,22.53
2023-02-21T13:48:30.324Z,18.97
2023-02-21T13:51:00.572Z,22.90
2023-02-21T13:53:33.428Z,18.07
2023-02-21T13:56:19.381Z,26.10
2023-02-21T13:58:50.733Z,17.00
2023-02-21T14:01:26.788Z,79.83
2023-02-21T14:03:58.507Z,29.17
2023-02-21T14:06:32.063Z,20.60
2023-02-21T14:09:02.713Z,22.93
2023-02-21T14:11:36.445Z,24.83
2023-02-21T14:14:08.380Z,12.53
2023-02-21T14:16:39.422Z,17.83
2023-02-21T14:19:09.524Z,17.53
2023-02-21T14:21:39.681Z,16.17
2023-02-21T14:24:14.106Z,13.60
2023-02-21T14:26:44.911Z,15.03
2023-02-21T14:29:18.080Z,21.73
2023-02-21T14:31:55.697Z,19.60
2023-02-21T14:34:36.362Z,33.70
2023-02-21T14:37:08.280Z,17.63
2023-02-21T14:39:41.903Z,25.93
2023-02-21T14:42:26.493Z,22.90
2023-02-21T14:45:06.539Z,20.47
2023-02-21T14:47:41.716Z,26.87
2023-02-21T14:50:15.292Z,20.30
2023-02-21T14:53:08.628Z,17.83
2023-02-21T14:55:42.329Z,17.60
2023-02-21T14:58:29.950Z,17.50
2023-02-21T15:01:06.219Z,17.67
2023-02-21T15:03:38.194Z,17.33
2023-02-21T15:06:11.075Z,19.03
2023-02-21T15:08:44.926Z,23.27
2023-02-21T15:11:21.279Z,19.30
2023-02-21T15:13:50.947Z,15.83
2023-02-21T15:16:21.634Z,15.00
2023-02-21T15:19:00.373Z,18.70
2023-02-21T15:21:29.934Z,17.70
2023-02-21T15:24:03.856Z,22.67
2023-02-21T15:26:34.742Z,20.73
2023-02-21T15:29:07.675Z,13.37
2023-02-21T15:31:39.887Z,21.17
2023-02-21T15:34:16.655Z,18.00
2023-02-21T15:36:46.729Z,17.50
2023-02-21T15:39:20.716Z,22.10
2023-02-21T15:41:51.728Z,17.50
2023-02-21T15:44:23.425Z,20.77
2023-02-21T15:46:56.390Z,24.53
2023-02-21T15:49:28.245Z,19.47
2023-02-21T15:51:57.648Z,24.03
2023-02-21T15:54:30.400Z,14.20
2023-02-21T15:57:03.480Z,19.80
2023-02-21T15:59:33.310Z,14.30
2023-02-21T16:02:24.389Z,25.60
2023-02-21T16:04:55.148Z,15.90
2023-02-21T16:07:34.171Z,21.57
2023-02-21T16:10:04.902Z,18.23
2023-02-21T16:12:37.293Z,14.53
2023-02-21T16:15:08.431Z,23.60
2023-02-21T16:17:38.436Z,19.00
2023-02-21T16:20:17.901Z,20.57
2023-02-21T16:23:08.217Z,25.23
2023-02-21T16:25:37.857Z,32.50
2023-02-21T16:28:13.848Z,22.07
2023-02-21T16:30:43.384Z,19.33
2023-02-21T16:33:15.256Z,25.33
2023-02-21T16:35:46.199Z,26.67
2023-02-21T16:38:17.776Z,22.00
2023-02-21T16:40:47.329Z,23.17
2023-02-21T16:43:20.239Z,23.83
2023-02-21T16:45:50.111Z,26.30
2023-02-21T16:48:21.949Z,25.37
2023-02-21T16:50:53.387Z,29.57
2023-02-21T16:53:23.020Z,21.97
2023-02-21T16:55:52.730Z,24.90
2023-02-21T16:58:26.192Z,23.57
2023-02-21T17:01:20.088Z,24.60
2023-02-21T17:03:50.724Z,21.33
2023-02-21T17:06:23.732Z,25.87
2023-02-21T17:08:53.475Z,26.87
2023-02-21T17:11:22.729Z,27.97
2023-02-21T17:13:51.947Z,29.60
2023-02-21T17:16:21.602Z,22.37
2023-02-21T17:18:51.202Z,18.83
2023-02-21T17:21:20.617Z,21.63
2023-02-21T17:23:51.412Z,47.93
2023-02-21T17:26:22.420Z,25.97
2023-02-21T17:28:52.165Z,32.20
2023-02-21T17:31:21.581Z,27.93
2023-02-21T17:33:52.112Z,27.90
2023-02-21T17:36:22.022Z,31.97
2023-02-21T17:38:52.962Z,24.53
2023-02-21T17:41:22.930Z,28.13
2023-02-21T17:43:52.431Z,24.23
2023-02-21T17:46:22.392Z,26.90
2023-02-21T17:48:52.162Z,21.37
2023-02-21T17:51:23.304Z,27.03
2023-02-21T17:53:54.039Z,24.57
2023-02-21T17:56:25.847Z,24.53
2023-02-21T17:58:55.385Z,22.37
2023-02-21T18:01:25.474Z,26.23
2023-02-21T18:03:54.821Z,26.80
2023-02-21T18:06:24.230Z,23.17
2023-02-21T18:08:55.088Z,21.77
2023-02-21T18:11:25.287Z,19.60
2023-02-21T18:13:54.795Z,21.67
2023-02-21T18:16:24.126Z,21.83
2023-02-21T18:18:53.418Z,18.80
2023-02-21T18:21:23.449Z,18.43
2023-02-21T18:23:54.308Z,30.03
2023-02-21T18:26:23.587Z,19.27
2023-02-21T18:28:52.812Z,22.97
2023-02-21T18:31:22.244Z,20.97
2023-02-21T18:33:52.610Z,41.37
2023-02-21T18:36:21.971Z,29.47
2023-02-21T18:38:51.341Z,24.60
2023-02-21T18:41:23.876Z,32.07
2023-02-21T18:43:53.478Z,28.20
2023-02-21T18:46:24.433Z,23.60
2023-02-21T18:48:53.887Z,28.30
2023-02-21T18:51:23.128Z,32.50
2023-02-21T18:53:53.297Z,29.47
2023-02-21T18:56:24.037Z,32.33
2023-02-21T18:58:53.450Z,36.57
2023-02-21T19:01:25.484Z,33.57
2023-02-21T19:03:57.389Z,26.10
2023-02-21T19:06:26.773Z,34.73
2023-02-21T19:08:56.574Z,30.87
2023-02-21T19:11:27.462Z,23.97
2023-02-21T19:13:56.723Z,31.97
2023-02-21T19:16:26.914Z,25.17
2023-02-21T19:18:57.007Z,32.47
2023-02-21T19:21:26.991Z,30.33
2023-02-21T19:23:56.290Z,26.90
2023-02-21T19:26:25.610Z,28.20
2023-02-21T19:28:56.308Z,28.30
2023-02-21T19:31:25.574Z,26.83
2023-02-21T19:33:54.939Z,23.93
2023-02-21T19:36:24.309Z,25.80
2023-02-21T19:38:53.859Z,29.87
2023-02-21T19:41:23.568Z,33.93
2023-02-21T19:43:52.728Z,27.70
2023-02-21T19:46:27.395Z,30.23
2023-02-21T19:48:57.046Z,24.00
2023-02-21T19:51:27.248Z,32.03
2023-02-21T19:53:59.240Z,26.80
2023-02-21T19:56:28.889Z,27.73
2023-02-21T19:59:00.036Z,34.50
2023-02-21T20:01:32.770Z,37.37
2023-02-21T20:04:03.891Z,23.53
2023-02-21T20:06:36.449Z,25.00
2023-02-21T20:09:06.494Z,23.10
2023-02-21T20:11:36.758Z,27.70
2023-02-21T20:14:06.580Z,22.23
2023-02-21T20:16:40.895Z,26.07
2023-02-21T20:19:11.056Z,29.00
2023-02-21T20:21:41.873Z,35.00
2023-02-21T20:24:12.540Z,23.83
2023-02-21T20:26:42.396Z,27.87
2023-02-21T20:29:12.825Z,27.57
2023-02-21T20:31:43.849Z,28.20
2023-02-21T20:34:13.528Z,29.10
2023-02-21T20:36:45.251Z,34.73
2023-02-21T20:39:28.493Z,26.53
2023-02-21T20:41:59.114Z,24.87
2023-02-21T20:44:29.391Z,29.77
2023-02-21T20:47:00.990Z,28.93
2023-02-21T20:49:31.272Z,24.00
2023-02-21T20:52:01.350Z,25.73
2023-02-21T20:54:32.483Z,26.27
2023-02-21T20:57:02.730Z,26.20
2023-02-21T20:59:32.929Z,22.63
2023-02-21T21:02:04.749Z,24.20
2023-02-21T21:04:35.823Z,21.73
2023-02-21T21:07:07.872Z,26.10
2023-02-21T21:09:39.429Z,24.47
2023-02-21T21:12:13.470Z,25.03
2023-02-21T21:14:44.372Z,29.77
2023-02-21T21:17:17.061Z,23.80
2023-02-21T21:19:48.129Z,26.60
2023-02-21T21:22:18.926Z,29.53
2023-02-21T21:24:48.293Z,27.90
2023-02-21T21:27:18.162Z,30.13
2023-02-21T21:29:48.890Z,24.50
2023-02-21T21:32:21.936Z,22.23
2023-02-21T21:34:52.296Z,27.13
2023-02-21T21:37:23.104Z,26.23
2023-02-21T21:39:55.091Z,26.90
2023-02-21T21:42:25.421Z,56.00
2023-02-21T21:44:55.607Z,27.20
2023-02-21T21:47:27.188Z,30.80
2023-02-21T21:49:56.951Z,24.70
2023-02-21T21:52:26.225Z,32.03
2023-02-21T21:54:55.585Z,28.77
2023-02-21T21:57:27.197Z,26.70
2023-02-21T21:59:57.340Z,29.63
2023-02-21T22:02:27.947Z,33.57
2023-02-21T22:04:58.108Z,27.70
2023-02-21T22:07:27.328Z,27.00
2023-02-21T22:09:56.728Z,25.03
2023-02-21T22:12:25.942Z,25.80
2023-02-21T22:14:57.598Z,24.60
2023-02-21T22:17:28.264Z,27.53
2023-02-21T22:19:57.465Z,33.00
2023-02-21T22:22:26.823Z,34.03
2023-02-21T22:24:56.279Z,30.13
2023-02-21T22:27:25.490Z,30.00
2023-02-21T22:29:56.463Z,30.10
2023-02-21T22:32:25.755Z,32.00
2023-02-21T22:34:56.583Z,30.20
2023-02-21T22:37:25.982Z,34.30
2023-02-21T22:39:55.284Z,35.73
2023-02-21T22:42:24.488Z,35.47
2023-02-21T22:44:53.908Z,42.73
2023-02-21T22:47:23.403Z,40.40
2023-02-21T22:49:52.701Z,36.73
2023-02-21T22:52:23.472Z,39.17
2023-02-21T22:54:53.214Z,39.53
2023-02-21T22:57:22.447Z,36.90
2023-02-21T22:59:55.971Z,40.40
2023-02-21T23:02:25.320Z,37.60
2023-02-21T23:04:55.620Z,38.00
2023-02-21T23:07:26.777Z,37.10
2023-02-21T23:09:57.990Z,36.83
2023-02-21T23:12:27.239Z,37.00
2023-02-21T23:14:56.451Z,34.30
2023-02-21T23:17:25.733Z,39.17
2023-02-21T23:19:54.844Z,32.67
2023-02-21T23:22:25.341Z,37.93
2023-02-21T23:24:56.046Z,36.50
2023-02-21T23:27:25.200Z,32.43
2023-02-21T23:29:54.470Z,33.97
2023-02-21T23:32:23.705Z,32.60
2023-02-21T23:34:52.881Z,31.60
2023-02-21T23:37:23.003Z,32.77
2023-02-21T23:39:52.156Z,44.47
2023-02-21T23:42:24.073Z,45.97
2023-02-21T23:44:53.364Z,55.10
2023-02-21T23:47:22.602Z,51.83
2023-02-21T23:49:52.327Z,57.17
2023-02-21T23:52:22.954Z,51.83
2023-02-21T23:54:55.511Z,49.23
2023-02-21T23:57:26.176Z,56.47
2023-02-21T23:59:55.468Z,54.50
